Time;durP1;ratioP1;P1;durP2;ratioP2;P2;SDS_P1;SDS_P2;PMS_P1;PMS_P2;Temp;Humidity;BMP_temperature;BMP_pressure;BME280_temperature;BME280_humidity;BME280_pressure;Samples;Min_cycle;Max_cycle;Signal;HPM_P1;HPM_P2
2022/04/24 00:01:57;;;;;;;1.53;1.43;;;21.20;35.20;;;;;;4978686;28;90914;-71
2022/04/24 00:04:26;;;;;;;1.47;1.37;;;21.20;35.20;;;;;;4979420;28;88401;-71
2022/04/24 00:06:54;;;;;;;1.83;1.70;;;21.10;35.20;;;;;;4979334;28;90672;-70
2022/04/24 00:09:23;;;;;;;1.83;1.47;;;21.10;35.20;;;;;;4981190;28;90087;-66
2022/04/24 00:11:51;;;;;;;1.47;1.37;;;21.20;35.20;;;;;;4979097;28;88270;-65
2022/04/24 00:14:19;;;;;;;1.63;1.47;;;21.10;35.20;;;;;;4978963;28;88535;-67
2022/04/24 00:16:47;;;;;;;2.23;1.80;;;21.20;35.30;;;;;;4979420;28;89635;-66
2022/04/24 00:19:18;;;;;;;2.13;1.80;;;21.20;35.30;;;;;;4979101;28;90093;-67
2022/04/24 00:21:46;;;;;;;1.60;1.50;;;21.10;35.20;;;;;;4982676;28;88414;-66
2022/04/24 00:24:14;;;;;;;1.63;1.30;;;21.10;35.20;;;;;;4982845;28;88438;-66
2022/04/24 00:26:44;;;;;;;1.67;1.57;;;21.10;35.30;;;;;;4982421;28;92725;-66
2022/04/24 00:29:12;;;;;;;1.90;1.70;;;21.10;35.30;;;;;;4982386;28;89081;-66
2022/04/24 00:31:41;;;;;;;2.23;1.80;;;21.10;35.30;;;;;;4982437;28;88870;-66
2022/04/24 00:34:09;;;;;;;2.00;1.80;;;21.10;35.30;;;;;;4982929;28;88632;-66
2022/04/24 00:36:37;;;;;;;2.03;1.47;;;21.10;35.30;;;;;;4982535;28;88487;-66
2022/04/24 00:39:05;;;;;;;2.03;1.90;;;21.10;35.30;;;;;;4982309;28;89032;-66
2022/04/24 00:41:35;;;;;;;1.50;1.40;;;21.10;35.30;;;;;;4982636;28;88338;-66
2022/04/24 00:44:05;;;;;;;1.60;1.50;;;21.10;35.30;;;;;;4982331;28;88564;-66
2022/04/24 00:46:40;;;;;;;2.07;1.43;;;21.20;35.40;;;;;;4981817;28;91005;-66
2022/04/24 00:49:09;;;;;;;3.10;1.63;;;21.20;35.50;;;;;;4981561;28;89679;-66
2022/04/24 00:51:38;;;;;;;1.97;1.60;;;21.20;35.50;;;;;;4982226;28;89272;-65
2022/04/24 00:54:07;;;;;;;2.23;1.87;;;21.20;35.50;;;;;;4982181;28;88526;-66
2022/04/24 00:56:35;;;;;;;2.00;1.80;;;21.10;35.40;;;;;;4964960;28;90753;-65
2022/04/24 00:59:06;;;;;;;2.03;1.70;;;21.10;35.40;;;;;;4981509;28;90970;-66
2022/04/24 01:01:35;;;;;;;2.33;1.73;;;21.00;35.50;;;;;;4981762;28;89198;-65
2022/04/24 01:04:04;;;;;;;2.33;1.50;;;21.00;35.50;;;;;;4981836;28;88495;-66
2022/04/24 01:06:34;;;;;;;1.90;1.70;;;21.00;35.60;;;;;;4981152;28;90843;-66
2022/04/24 01:09:12;;;;;;;1.63;1.50;;;20.90;35.50;;;;;;4980542;28;90507;-66
2022/04/24 01:11:41;;;;;;;1.70;1.50;;;20.90;35.50;;;;;;4971387;28;88362;-66
2022/04/24 01:14:10;;;;;;;1.50;1.33;;;21.00;35.60;;;;;;4981540;28;88598;-66
2022/04/24 01:16:38;;;;;;;1.60;1.50;;;20.90;35.50;;;;;;4981642;28;90586;-65
2022/04/24 01:19:06;;;;;;;1.63;1.53;;;21.00;35.70;;;;;;4982104;28;93158;-65
2022/04/24 01:21:36;;;;;;;2.67;1.70;;;21.00;35.70;;;;;;4981772;28;88509;-65
2022/04/24 01:24:05;;;;;;;2.07;1.70;;;21.00;35.70;;;;;;4981874;28;88450;-66
2022/04/24 01:26:33;;;;;;;1.83;1.70;;;21.00;35.70;;;;;;4981797;28;90726;-65
2022/04/24 01:29:01;;;;;;;1.90;1.53;;;21.00;35.70;;;;;;4981458;28;90065;-65
2022/04/24 01:31:29;;;;;;;3.80;1.30;;;21.00;35.70;;;;;;4981728;28;88838;-66
2022/04/24 01:33:57;;;;;;;2.40;1.60;;;21.00;35.80;;;;;;4981532;28;88652;-66
2022/04/24 01:36:25;;;;;;;2.37;1.70;;;21.00;35.90;;;;;;4981301;28;90293;-66
2022/04/24 01:38:55;;;;;;;1.83;1.73;;;20.90;35.80;;;;;;4980792;28;89085;-66
2022/04/24 01:41:23;;;;;;;2.63;2.10;;;20.90;35.90;;;;;;4980636;28;89573;-65
2022/04/24 01:43:50;;;;;;;2.37;1.57;;;20.80;35.90;;;;;;4981478;28;88676;-65
2022/04/24 01:46:18;;;;;;;1.50;1.40;;;20.80;36.00;;;;;;4981619;28;90366;-65
2022/04/24 01:48:47;;;;;;;2.73;2.00;;;20.80;36.00;;;;;;4981242;28;89256;-66
2022/04/24 01:51:14;;;;;;;4.17;1.57;;;20.70;36.10;;;;;;4981074;28;91003;-66
2022/04/24 01:53:43;;;;;;;2.03;1.67;;;20.80;36.80;;;;;;4981421;28;88435;-66
2022/04/24 01:56:13;;;;;;;3.00;1.77;;;20.80;36.10;;;;;;4981313;28;89440;-66
2022/04/24 01:58:41;;;;;;;1.83;1.73;;;20.80;36.20;;;;;;4981242;28;90239;-66
2022/04/24 02:01:09;;;;;;;4.80;1.80;;;20.80;36.20;;;;;;4980507;28;89341;-66
2022/04/24 02:03:37;;;;;;;2.00;1.90;;;20.70;36.20;;;;;;4980982;28;88401;-66
2022/04/24 02:06:05;;;;;;;2.17;1.97;;;20.70;36.30;;;;;;4981219;28;90572;-66
2022/04/24 02:08:35;;;;;;;2.73;2.10;;;20.70;36.30;;;;;;4981311;28;90223;-66
2022/04/24 02:11:03;;;;;;;2.13;1.93;;;20.70;36.40;;;;;;4981166;28;89253;-66
2022/04/24 02:13:32;;;;;;;2.30;2.10;;;20.70;36.40;;;;;;4981541;28;88641;-65
2022/04/24 02:16:02;;;;;;;2.57;2.13;;;20.60;36.40;;;;;;4981221;28;88352;-66
2022/04/24 02:18:30;;;;;;;2.70;2.17;;;20.60;36.50;;;;;;4980984;28;89922;-65
2022/04/24 02:20:58;;;;;;;2.90;2.20;;;20.60;36.50;;;;;;4981328;28;91093;-66
2022/04/24 02:23:26;;;;;;;2.20;2.00;;;20.50;36.50;;;;;;4980997;28;88404;-66
2022/04/24 02:25:54;;;;;;;3.70;2.13;;;20.50;36.60;;;;;;4981163;28;90344;-66
2022/04/24 02:28:22;;;;;;;3.13;2.10;;;20.50;36.70;;;;;;4980628;28;92767;-66
2022/04/24 02:30:52;;;;;;;2.50;2.10;;;20.50;36.80;;;;;;4980201;28;89240;-66
2022/04/24 02:33:20;;;;;;;2.40;1.73;;;20.50;36.90;;;;;;4980977;28;88476;-66
2022/04/24 02:35:48;;;;;;;3.20;2.30;;;20.50;36.90;;;;;;4979894;28;89893;-65
2022/04/24 02:38:16;;;;;;;2.70;2.50;;;20.50;37.00;;;;;;4980338;28;91507;-66
2022/04/24 02:40:44;;;;;;;2.57;2.27;;;20.50;37.00;;;;;;4980541;28;88906;-66
2022/04/24 02:43:12;;;;;;;2.20;2.00;;;20.50;37.10;;;;;;4979606;28;88708;-66
2022/04/24 02:45:42;;;;;;;3.50;2.40;;;20.40;37.00;;;;;;4980863;28;90606;-65
2022/04/24 02:48:12;;;;;;;2.67;2.47;;;20.50;37.20;;;;;;4979921;28;90293;-66
2022/04/24 02:50:40;;;;;;;2.03;1.90;;;20.50;37.30;;;;;;4980317;28;89200;-66
2022/04/24 02:53:09;;;;;;;2.17;2.03;;;20.40;37.30;;;;;;4980711;28;88510;-66
2022/04/24 02:55:37;;;;;;;2.43;2.23;;;20.40;37.30;;;;;;4980745;28;90671;-66
2022/04/24 02:58:05;;;;;;;3.00;2.63;;;20.40;37.40;;;;;;4980284;28;90443;-66
2022/04/24 03:00:43;;;;;;;6.33;2.80;;;20.50;37.50;;;;;;4980223;28;89039;-66
2022/04/24 03:03:12;;;;;;;2.83;2.50;;;20.50;37.50;;;;;;4980290;28;88357;-66
2022/04/24 03:05:40;;;;;;;3.27;2.97;;;20.50;37.60;;;;;;4960512;28;90885;-65
2022/04/24 03:08:09;;;;;;;3.23;2.73;;;20.50;37.60;;;;;;4960638;28;90482;-66
2022/04/24 03:10:38;;;;;;;3.57;2.80;;;20.50;37.70;;;;;;4960958;28;89291;-65
2022/04/24 03:13:06;;;;;;;4.23;2.77;;;20.50;37.80;;;;;;4960874;28;88591;-66
2022/04/24 03:15:34;;;;;;;2.57;2.10;;;20.50;37.80;;;;;;4960069;28;93165;-65
2022/04/24 03:18:05;;;;;;;3.07;2.70;;;20.50;37.90;;;;;;4960335;28;90098;-65
2022/04/24 03:20:36;;;;;;;3.90;2.53;;;20.50;38.50;;;;;;4963729;28;88945;-65
2022/04/24 03:23:04;;;;;;;3.60;2.73;;;20.50;37.90;;;;;;4980512;28;88441;-65
2022/04/24 03:25:32;;;;;;;3.03;2.73;;;20.50;38.00;;;;;;4980336;28;92958;-66
2022/04/24 03:28:00;;;;;;;3.90;3.10;;;20.40;38.00;;;;;;4980148;28;93589;-66
2022/04/24 03:30:29;;;;;;;4.87;3.07;;;20.30;38.10;;;;;;4979893;28;88739;-65
2022/04/24 03:32:57;;;;;;;4.47;3.67;;;20.30;38.20;;;;;;4980196;28;88483;-65
2022/04/24 03:35:26;;;;;;;4.77;3.47;;;20.20;38.30;;;;;;4979330;28;90611;-65
2022/04/24 03:37:55;;;;;;;4.80;2.70;;;20.10;38.40;;;;;;4979228;28;89041;-65
2022/04/24 03:40:24;;;;;;;5.13;3.57;;;20.00;38.50;;;;;;4979196;28;88283;-65
2022/04/24 03:42:51;;;;;;;2.67;2.37;;;20.00;38.60;;;;;;4978928;28;88464;-65
2022/04/24 03:45:19;;;;;;;3.03;2.60;;;20.00;38.60;;;;;;4979943;28;89410;-65
2022/04/24 03:47:48;;;;;;;3.37;2.70;;;20.00;38.70;;;;;;4978903;28;89753;-65
2022/04/24 03:50:16;;;;;;;3.83;2.90;;;20.00;38.70;;;;;;4979783;28;88843;-65
2022/04/24 03:52:44;;;;;;;4.27;2.70;;;20.00;38.70;;;;;;4979814;28;88501;-65
2022/04/24 03:55:13;;;;;;;3.97;3.13;;;20.00;38.80;;;;;;4980732;28;93327;-65
2022/04/24 03:57:41;;;;;;;3.87;2.97;;;20.00;38.80;;;;;;4982781;28;90272;-65
2022/04/24 04:00:10;;;;;;;2.80;2.50;;;20.00;38.80;;;;;;4983024;28;90651;-65
2022/04/24 04:02:44;;;;;;;3.30;2.53;;;20.00;38.80;;;;;;4983343;28;88404;-66
2022/04/24 04:05:13;;;;;;;3.10;2.80;;;19.90;38.90;;;;;;4982714;28;89383;-65
2022/04/24 04:07:41;;;;;;;4.00;2.83;;;20.00;38.90;;;;;;4982793;28;93137;-66
2022/04/24 04:10:09;;;;;;;2.80;2.53;;;20.00;38.90;;;;;;4983116;28;92720;-65
2022/04/24 04:12:38;;;;;;;3.57;2.87;;;20.00;38.90;;;;;;4983414;28;88499;-66
2022/04/24 04:15:08;;;;;;;4.03;2.70;;;19.90;38.90;;;;;;4983416;28;90305;-65
2022/04/24 04:17:35;;;;;;;4.43;2.23;;;20.00;39.00;;;;;;4982796;28;90128;-65
2022/04/24 04:20:11;;;;;;;2.50;2.30;;;19.90;39.00;;;;;;4983289;28;88453;-65
2022/04/24 04:22:48;;;;;;;3.13;2.83;;;19.90;39.00;;;;;;4982927;28;88646;-65
2022/04/24 04:25:17;;;;;;;4.43;3.13;;;19.90;39.00;;;;;;4982706;28;90586;-65
2022/04/24 04:27:46;;;;;;;6.07;3.70;;;19.90;39.00;;;;;;4982714;28;93011;-65
2022/04/24 04:30:14;;;;;;;4.67;2.83;;;19.90;39.70;;;;;;4982439;28;88997;-66
2022/04/24 04:32:42;;;;;;;5.17;3.33;;;19.90;39.80;;;;;;4982913;28;88607;-66
2022/04/24 04:35:10;;;;;;;4.10;3.23;;;19.90;39.10;;;;;;4982319;28;91183;-66
2022/04/24 04:37:39;;;;;;;4.87;3.53;;;19.90;39.10;;;;;;4982526;28;90540;-65
2022/04/24 04:40:08;;;;;;;5.20;3.07;;;19.90;39.10;;;;;;4982377;28;88484;-65
2022/04/24 04:42:36;;;;;;;4.10;3.50;;;19.80;39.10;;;;;;4982686;28;88466;-66
2022/04/24 04:45:06;;;;;;;6.50;3.93;;;19.80;39.20;;;;;;4982670;28;88962;-65
2022/04/24 04:47:35;;;;;;;4.60;3.30;;;19.80;39.20;;;;;;4981633;28;88962;-66
2022/04/24 04:50:06;;;;;;;6.30;3.43;;;19.70;39.20;;;;;;4982633;28;88397;-65
2022/04/24 04:52:35;;;;;;;4.53;3.30;;;19.70;39.20;;;;;;4981761;28;88517;-65
2022/04/24 04:55:03;;;;;;;5.70;2.90;;;19.80;39.30;;;;;;4982196;28;89208;-65
2022/04/24 04:57:31;;;;;;;3.43;3.07;;;19.80;39.20;;;;;;4981992;28;91585;-65
2022/04/24 05:00:00;;;;;;;3.57;2.87;;;19.90;39.20;;;;;;4982510;28;88947;-65
2022/04/24 05:02:29;;;;;;;3.20;2.50;;;20.00;39.20;;;;;;4981599;28;88496;-66
2022/04/24 05:04:59;;;;;;;4.43;3.10;;;20.20;39.10;;;;;;4978855;28;93300;-66
2022/04/24 05:07:27;;;;;;;4.40;2.63;;;20.40;39.60;;;;;;4979586;28;90558;-65
2022/04/24 05:09:55;;;;;;;3.37;2.80;;;20.40;38.90;;;;;;4980577;28;88702;-65
2022/04/24 05:12:26;;;;;;;4.17;2.60;;;20.30;38.80;;;;;;4982289;28;88522;-64
2022/04/24 05:14:54;;;;;;;3.63;3.03;;;20.20;38.90;;;;;;4995197;28;89597;-64
2022/04/24 05:17:22;;;;;;;3.33;2.80;;;20.20;39.10;;;;;;4981531;28;90097;-65
2022/04/24 05:19:51;;;;;;;3.47;2.57;;;20.20;39.20;;;;;;4981362;28;88864;-64
2022/04/24 05:22:19;;;;;;;3.93;2.83;;;20.20;39.30;;;;;;4981968;28;88360;-63
2022/04/24 05:24:47;;;;;;;3.10;2.80;;;20.20;39.30;;;;;;4981657;28;90641;-64
2022/04/24 05:27:15;;;;;;;3.20;2.57;;;20.10;39.30;;;;;;4981936;28;89640;-64
2022/04/24 05:29:43;;;;;;;2.23;2.03;;;20.00;39.20;;;;;;4981851;28;89232;-65
2022/04/24 05:32:11;;;;;;;2.60;2.13;;;20.00;39.30;;;;;;4981868;28;89327;-65
2022/04/24 05:34:39;;;;;;;2.90;2.33;;;20.00;39.30;;;;;;4979887;28;91593;-65
2022/04/24 05:37:09;;;;;;;3.80;2.60;;;19.90;39.30;;;;;;4976448;28;90160;-64
2022/04/24 05:39:37;;;;;;;2.20;2.00;;;20.00;39.50;;;;;;4981603;28;88929;-65
2022/04/24 05:42:06;;;;;;;6.07;2.50;;;20.10;39.60;;;;;;4981113;28;88581;-64
2022/04/24 05:44:35;;;;;;;2.07;1.87;;;20.30;39.60;;;;;;4968966;28;93158;-65
2022/04/24 05:47:03;;;;;;;4.83;2.00;;;20.40;39.60;;;;;;4992210;28;89858;-65
2022/04/24 05:49:31;;;;;;;4.23;2.20;;;20.60;39.70;;;;;;4961074;28;89794;-65
2022/04/24 05:51:59;;;;;;;3.10;2.30;;;20.70;39.70;;;;;;4968301;28;88471;-65
2022/04/24 05:54:30;;;;;;;2.27;2.03;;;20.80;39.70;;;;;;4980464;28;91156;-65
2022/04/24 05:56:58;;;;;;;3.80;2.10;;;20.90;39.70;;;;;;4981194;28;89760;-65
2022/04/24 05:59:26;;;;;;;2.17;1.97;;;21.00;39.70;;;;;;4981269;28;88888;-65
2022/04/24 06:01:57;;;;;;;3.37;2.17;;;21.10;39.80;;;;;;4981535;28;88426;-65
2022/04/24 06:04:25;;;;;;;2.67;2.20;;;21.10;39.80;;;;;;4981247;28;90636;-65
2022/04/24 06:06:53;;;;;;;4.07;2.50;;;21.20;39.70;;;;;;4981017;28;89986;-64
2022/04/24 06:09:21;;;;;;;2.50;2.30;;;21.30;39.80;;;;;;4969936;28;88919;-65
2022/04/24 06:11:58;;;;;;;2.57;1.93;;;21.30;39.80;;;;;;4981202;28;88602;-64
2022/04/24 06:14:26;;;;;;;2.80;1.60;;;21.40;39.90;;;;;;4980799;28;90773;-65
2022/04/24 06:16:54;;;;;;;2.53;1.90;;;21.40;39.80;;;;;;4980455;28;92795;-65
2022/04/24 06:19:22;;;;;;;2.20;1.80;;;21.40;39.80;;;;;;4980592;28;89538;-64
2022/04/24 06:21:50;;;;;;;3.00;1.90;;;21.50;39.90;;;;;;4980507;28;88594;-65
2022/04/24 06:24:19;;;;;;;3.80;2.47;;;21.50;39.90;;;;;;4980257;28;90599;-65
2022/04/24 06:26:47;;;;;;;1.97;1.87;;;21.50;39.90;;;;;;4980840;28;90157;-65
2022/04/24 06:29:16;;;;;;;2.30;1.80;;;21.60;40.10;;;;;;4980695;28;91630;-64
2022/04/24 06:31:44;;;;;;;2.53;1.87;;;21.60;40.10;;;;;;4980939;28;88558;-64
2022/04/24 06:34:12;;;;;;;3.83;2.20;;;21.70;40.10;;;;;;4980790;28;88922;-64
2022/04/24 06:36:40;;;;;;;2.70;2.00;;;21.70;40.20;;;;;;4979980;28;90068;-65
2022/04/24 06:39:08;;;;;;;2.67;2.00;;;21.70;40.20;;;;;;4980409;28;89923;-64
2022/04/24 06:41:36;;;;;;;1.80;1.67;;;21.80;40.30;;;;;;4980102;28;88448;-64
2022/04/24 06:44:05;;;;;;;2.83;1.90;;;21.80;40.30;;;;;;4980636;28;93375;-64
2022/04/24 06:46:35;;;;;;;2.80;1.93;;;21.80;40.30;;;;;;4978806;28;92228;-64
2022/04/24 06:49:03;;;;;;;2.10;1.80;;;21.80;40.30;;;;;;4979713;28;91125;-64
2022/04/24 06:51:31;;;;;;;2.90;2.10;;;21.90;40.30;;;;;;4980078;28;88476;-64
2022/04/24 06:53:59;;;;;;;4.07;1.83;;;21.90;40.40;;;;;;4980818;28;91910;-64
2022/04/24 06:56:27;;;;;;;1.87;1.77;;;21.90;40.40;;;;;;4980314;28;90029;-64
2022/04/24 06:58:55;;;;;;;3.03;1.60;;;21.90;40.40;;;;;;4979775;28;88272;-64
2022/04/24 07:01:25;;;;;;;2.63;1.77;;;21.90;40.40;;;;;;4980378;28;88145;-64
2022/04/24 07:03:55;;;;;;;1.73;1.60;;;21.90;40.40;;;;;;4980248;28;90133;-65
2022/04/24 07:06:24;;;;;;;3.20;2.03;;;21.90;40.40;;;;;;4980174;28;89413;-65
2022/04/24 07:08:52;;;;;;;2.67;1.73;;;22.00;40.50;;;;;;4980049;28;88417;-64
2022/04/24 07:11:22;;;;;;;2.40;1.90;;;22.00;40.50;;;;;;4972719;28;88469;-64
2022/04/24 07:13:50;;;;;;;3.20;2.67;;;22.00;40.50;;;;;;4974610;28;89888;-65
